ADDS METAR Data INFO
IDs: Format: Raw Decoded Include TAF

Data at: 0728 UTC 16 Jan 2018

METAR for:PAKF (False Pass Arpt, AK, US)
Text:PAKF 160701Z AUTO 23004KT 10SM OVC026 00/M01 A2934 RMK AO2 SLP029 T00001011 FZRANO
Temperature: 0.0°C ( 32°F)
Dewpoint: -1.1°C ( 30°F) [RH = 92%]
Pressure (altimeter):29.34 inches Hg ( 993.6 mb) [Sea level pressure: 1002.9 mb]
Winds:from the SW (230 degrees) at 5 MPH (4 knots; 2.1 m/s)
Visibility:10 or more sm (16+ km)
Ceiling:2600 feet AGL
Clouds: overcast cloud deck at 2600 feet AGL
QC Flag:automated observation with no human augmentation
Text:PAKF 160649Z AUTO 23003KT 10SM BKN026 00/M01 A2934 RMK AO2 FZRANO
Temperature: 0.0°C ( 32°F)
Dewpoint: -1.0°C ( 30°F) [RH = 93%]
Pressure (altimeter):29.34 inches Hg ( 993.6 mb)
Winds:from the SW (230 degrees) at 3 MPH (3 knots; 1.5 m/s)
Visibility:10 or more sm (16+ km)
Ceiling:2600 feet AGL
Clouds: broken clouds at 2600 feet AGL
QC Flag:automated observation with no human augmentation
Text:PAKF 160627Z AUTO 00000KT 10SM FEW024 01/M01 A2933 RMK AO2 FZRANO
Temperature: 1.0°C ( 34°F)
Dewpoint: -1.0°C ( 30°F) [RH = 86%]
Pressure (altimeter):29.33 inches Hg ( 993.3 mb)
Winds:calm
Visibility:10 or more sm (16+ km)
Ceiling:at least 12,000 feet AGL
Clouds: few clouds at 2400 feet AGL
QC Flag:automated observation with no human augmentation
Text:PAKF 160601Z AUTO 00000KT 10SM OVC024 00/M01 A2933 RMK AO2 RAE0512UPB0512E0513 SLP025 P0000 60002 T00001011 10028 20000 51014 FZRANO
Temperature: 0.0°C ( 32°F)
Dewpoint: -1.1°C ( 30°F) [RH = 92%]
Pressure (altimeter):29.33 inches Hg ( 993.3 mb) [Sea level pressure: 1002.5 mb]
Winds:calm
Visibility:10 or more sm (16+ km)
Ceiling:2400 feet AGL
Clouds: overcast cloud deck at 2400 feet AGL
QC Flag:automated observation with no human augmentation
Text:PAKF 160528Z AUTO 00000KT 10SM BKN022 BKN045 00/M01 A2932 RMK AO2 RAE12UPB12E13 P0000 FZRANO
Temperature: 0.0°C ( 32°F)
Dewpoint: -1.0°C ( 30°F) [RH = 93%]
Pressure (altimeter):29.32 inches Hg ( 993.0 mb)
Winds:calm
Visibility:10 or more sm (16+ km)
Ceiling:2200 feet AGL
Clouds: broken clouds at 2200 feet AGL, broken clouds at 4500 feet AGL
QC Flag:automated observation with no human augmentation
Text:PAKF 160516Z AUTO 23004KT 10SM FEW021 SCT026 BKN045 00/M01 A2932 RMK AO2 RAE12UPB12E13 P0000 FZRANO
Temperature: 0.0°C ( 32°F)
Dewpoint: -1.0°C ( 30°F) [RH = 93%]
Pressure (altimeter):29.32 inches Hg ( 993.0 mb)
Winds:from the SW (230 degrees) at 5 MPH (4 knots; 2.1 m/s)
Visibility:10 or more sm (16+ km)
Ceiling:4500 feet AGL
Clouds: few clouds at 2100 feet AGL, scattered clouds at 2600 feet AGL, broken clouds at 4500 feet AGL
QC Flag:automated observation with no human augmentation
Text:PAKF 160501Z AUTO 27004KT 10SM -RA BKN021 BKN026 OVC034 01/M01 A2931 RMK AO2 RAB0455 SLP021 P0000 T00061011 FZRANO
Temperature: 0.6°C ( 33°F)
Dewpoint: -1.1°C ( 30°F) [RH = 88%]
Pressure (altimeter):29.31 inches Hg ( 992.6 mb) [Sea level pressure: 1002.1 mb]
Winds:from the W (270 degrees) at 5 MPH (4 knots; 2.1 m/s)
Visibility:10 or more sm (16+ km)
Ceiling:2100 feet AGL
Clouds: broken clouds at 2100 feet AGL, broken clouds at 2600 feet AGL, overcast cloud deck at 3400 feet AGL
Weather:-RA (light rain)
QC Flag:automated observation with no human augmentation
Text:PAKF 160422Z AUTO 00000KT 10SM BKN021 01/M01 A2931 RMK AO2 FZRANO
Temperature: 1.0°C ( 34°F)
Dewpoint: -1.0°C ( 30°F) [RH = 86%]
Pressure (altimeter):29.31 inches Hg ( 992.6 mb)
Winds:calm
Visibility:10 or more sm (16+ km)
Ceiling:2100 feet AGL
Clouds: broken clouds at 2100 feet AGL
QC Flag:automated observation with no human augmentation
Text:PAKF 160401Z AUTO 00000KT 10SM SCT023 BKN035 01/M01 A2930 RMK AO2 UPB0323E0333 SLP018 P0000 T00111006 FZRANO
Temperature: 1.1°C ( 34°F)
Dewpoint: -0.6°C ( 31°F) [RH = 88%]
Pressure (altimeter):29.30 inches Hg ( 992.3 mb) [Sea level pressure: 1001.8 mb]
Winds:calm
Visibility:10 or more sm (16+ km)
Ceiling:3500 feet AGL
Clouds: scattered clouds at 2300 feet AGL, broken clouds at 3500 feet AGL
QC Flag:automated observation with no human augmentation
Text:PAKF 160341Z AUTO 22003KT 10SM SCT019 OVC033 02/00 A2930 RMK AO2 UPB23E33 P0000 FZRANO
Temperature: 2.0°C ( 36°F)
Dewpoint: 0.0°C ( 32°F) [RH = 87%]
Pressure (altimeter):29.30 inches Hg ( 992.3 mb)
Winds:from the SW (220 degrees) at 3 MPH (3 knots; 1.5 m/s)
Visibility:10 or more sm (16+ km)
Ceiling:3300 feet AGL
Clouds: scattered clouds at 1900 feet AGL, overcast cloud deck at 3300 feet AGL
QC Flag:automated observation with no human augmentation
Text:PAKF 160301Z AUTO 00000KT 10SM SCT024 OVC029 02/00 A2929 RMK AO2 SLP012 60010 T00170000 53009 FZRANO
Temperature: 1.7°C ( 35°F)
Dewpoint: 0.0°C ( 32°F) [RH = 88%]
Pressure (altimeter):29.29 inches Hg ( 992.0 mb) [Sea level pressure: 1001.2 mb]
Winds:calm
Visibility:10 or more sm (16+ km)
Ceiling:2900 feet AGL
Clouds: scattered clouds at 2400 feet AGL, overcast cloud deck at 2900 feet AGL
QC Flag:automated observation with no human augmentation
Text:PAKF 160238Z AUTO 27003KT 10SM BKN028 BKN040 02/00 A2928 RMK AO2 FZRANO
Temperature: 2.0°C ( 36°F)
Dewpoint: 0.0°C ( 32°F) [RH = 87%]
Pressure (altimeter):29.28 inches Hg ( 991.6 mb)
Winds:from the W (270 degrees) at 3 MPH (3 knots; 1.5 m/s)
Visibility:10 or more sm (16+ km)
Ceiling:2800 feet AGL
Clouds: broken clouds at 2800 feet AGL, broken clouds at 4000 feet AGL
QC Flag:automated observation with no human augmentation
Text:PAKF 160201Z AUTO 19006KT 10SM FEW015 SCT041 02/01 A2927 RMK AO2 RAE0112B0142E0151UPB0151E0154 SLP007 P0000 T00220006 FZRANO
Temperature: 2.2°C ( 36°F)
Dewpoint: 0.6°C ( 33°F) [RH = 89%]
Pressure (altimeter):29.27 inches Hg ( 991.3 mb) [Sea level pressure: 1000.7 mb]
Winds:from the S (190 degrees) at 7 MPH (6 knots; 3.1 m/s)
Visibility:10 or more sm (16+ km)
Ceiling:at least 12,000 feet AGL
Clouds: few clouds at 1500 feet AGL, scattered clouds at 4100 feet AGL
QC Flag:automated observation with no human augmentation
Text:PAKF 160133Z AUTO 17005KT 10SM FEW012 SCT049 02/01 A2926 RMK AO2 RAE12 P0000 FZRANO
Temperature: 2.0°C ( 36°F)
Dewpoint: 1.0°C ( 34°F) [RH = 93%]
Pressure (altimeter):29.26 inches Hg ( 990.9 mb)
Winds:from the S (170 degrees) at 6 MPH (5 knots; 2.6 m/s)
Visibility:10 or more sm (16+ km)
Ceiling:at least 12,000 feet AGL
Clouds: few clouds at 1200 feet AGL, scattered clouds at 4900 feet AGL
QC Flag:automated observation with no human augmentation

TAF for:PAKF (False Pass Arpt, AK, US)
Text:No data found